Decoded Metar for OITZ (ZANJAN in IRAN) (IATA:N/A) | Meteo·Mobile Aviation Weather
aviador You're here:

OITZ Decoded Metar

ZANJAN in IRAN
Report Time2018-09-22 14:00:00
UTC Time2018-09-22 14:37:03
Flight Rules mvfr MVFR
Wind170° at 10 kt
W.Decomp.*RWY 12: 6.8 kt HW 7.3 kt RCW
W.Rank170° ranks 22
Current wind is above 170° avg. (9.4)
Visibility7000 m
Phenomena:Light Shower Rain
Clouds:Few CB 030 Hf
Scattered 035 Hf
Expected CloudBase > 5,200 ft AGL from Temp-Dew spread
CeilingNone
Temp22°C (ISA +18)
Dew Point09°C (44% RH)
AAT18.2°C
QNH1020 hPa
Density Alt7,434 ft
Elevation5,456 ft
Report Wrong Elevation
Raw Report
METAR OITZ 221400Z 17010KT 7000 -SHRA FEW030CB SCT035 22/09 Q1020=

Extra information for OITZ:More info

Metar Taf Metar & Taf Last 4 Metars F.Rules Stats Wind Profile Meteogram Temp Stats Airport Information Weather charts Add Link Nearby VenuesMetar ALERT Operation Metar Decoded Social comments